Time;durP1;ratioP1;P1;durP2;ratioP2;P2;SDS_P1;SDS_P2;PMS_P1;PMS_P2;Temp;Humidity;BMP_temperature;BMP_pressure;BME280_temperature;BME280_humidity;BME280_pressure;Samples;Min_cycle;Max_cycle;Signal;HPM_P1;HPM_P2
2022/04/02 00:01:30;;;;;;;5.60;2.65;;;;;;;;;;4993765;28;20053;-68
2022/04/02 00:03:57;;;;;;;8.10;2.80;;;;;;;;;;4992987;28;20501;-67
2022/04/02 00:06:23;;;;;;;6.28;2.70;;;;;;;;;;4993434;28;20085;-68
2022/04/02 00:08:49;;;;;;;6.57;2.45;;;;;;;;;;4993655;28;20042;-68
2022/04/02 00:11:15;;;;;;;6.78;2.88;;;;;;;;;;4993421;28;20092;-68
2022/04/02 00:13:41;;;;;;;6.65;2.90;;;;;;;;;;4989325;28;20070;-68
2022/04/02 00:16:07;;;;;;;9.05;3.50;;;;;;;;;;4990811;28;20398;-68
2022/04/02 00:18:34;;;;;;;7.50;2.72;;;;;;;;;;4978374;28;20449;-69
2022/04/02 00:21:00;;;;;;;7.47;3.00;;;;;;;;;;4984921;28;20414;-67
2022/04/02 00:23:43;;;;;;;9.27;2.85;;;;;;;;;;4991612;28;20489;-68
2022/04/02 00:26:10;;;;;;;6.38;2.78;;;;;;;;;;4992886;28;20042;-68
2022/04/02 00:28:37;;;;;;;5.50;2.75;;;;;;;;;;4983630;28;20553;-68
2022/04/02 00:31:03;;;;;;;6.38;2.40;;;;;;;;;;4984542;28;20062;-68
2022/04/02 00:33:29;;;;;;;5.03;2.25;;;;;;;;;;4984102;28;20045;-68
2022/04/02 00:35:55;;;;;;;6.53;2.40;;;;;;;;;;4986649;28;20819;-68
2022/04/02 00:38:21;;;;;;;8.25;2.80;;;;;;;;;;4983472;28;20046;-68
2022/04/02 00:40:47;;;;;;;6.30;2.60;;;;;;;;;;4977555;28;20524;-68
2022/04/02 00:43:22;;;;;;;8.00;2.53;;;;;;;;;;4991209;28;20048;-68
2022/04/02 00:45:48;;;;;;;6.80;2.90;;;;;;;;;;4980540;28;20058;-68
2022/04/02 00:48:14;;;;;;;6.32;2.50;;;;;;;;;;4976797;28;20038;-68
2022/04/02 00:50:41;;;;;;;5.85;2.40;;;;;;;;;;4990379;28;20408;-69
2022/04/02 00:53:07;;;;;;;5.85;2.63;;;;;;;;;;4980528;28;20043;-68
2022/04/02 00:55:33;;;;;;;4.97;2.40;;;;;;;;;;4990476;28;20041;-68
2022/04/02 00:57:59;;;;;;;7.20;2.45;;;;;;;;;;4990498;28;20046;-68
2022/04/02 01:00:25;;;;;;;7.63;2.70;;;;;;;;;;4988258;28;20035;-68
2022/04/02 01:02:52;;;;;;;7.90;2.63;;;;;;;;;;4981820;28;20035;-69
2022/04/02 01:05:18;;;;;;;7.20;2.65;;;;;;;;;;4978954;28;20064;-68
2022/04/02 01:07:44;;;;;;;9.02;2.50;;;;;;;;;;4988271;28;20422;-68
2022/04/02 01:10:10;;;;;;;6.88;2.50;;;;;;;;;;4992477;28;20129;-67
2022/04/02 01:12:36;;;;;;;8.20;2.50;;;;;;;;;;4988393;28;20134;-68
2022/04/02 01:15:02;;;;;;;7.80;2.45;;;;;;;;;;4992726;28;20129;-67
2022/04/02 01:17:28;;;;;;;8.30;2.40;;;;;;;;;;4967859;28;20397;-68
2022/04/02 01:19:54;;;;;;;8.30;2.28;;;;;;;;;;4989016;28;20512;-68
2022/04/02 01:22:22;;;;;;;7.45;2.50;;;;;;;;;;4987218;28;20489;-67
2022/04/02 01:24:48;;;;;;;5.82;2.60;;;;;;;;;;4988376;28;21262;-68
2022/04/02 01:27:14;;;;;;;5.82;2.63;;;;;;;;;;4978863;28;20493;-67
2022/04/02 01:29:40;;;;;;;7.22;2.83;;;;;;;;;;4982471;28;20134;-68
2022/04/02 01:32:06;;;;;;;7.13;2.72;;;;;;;;;;4981886;28;20046;-67
2022/04/02 01:34:32;;;;;;;5.90;2.65;;;;;;;;;;4980797;28;20042;-68
2022/04/02 01:36:59;;;;;;;5.93;2.33;;;;;;;;;;4970820;28;20046;-68
2022/04/02 01:39:25;;;;;;;7.22;3.03;;;;;;;;;;4981181;28;20043;-68
2022/04/02 01:41:51;;;;;;;5.65;2.65;;;;;;;;;;4973153;28;20047;-68
2022/04/02 01:44:17;;;;;;;9.15;2.90;;;;;;;;;;4982729;28;20042;-68
2022/04/02 01:46:43;;;;;;;8.40;3.25;;;;;;;;;;4970506;28;20097;-68
2022/04/02 01:49:09;;;;;;;6.82;3.08;;;;;;;;;;4988341;28;20461;-68
2022/04/02 01:51:35;;;;;;;7.50;2.70;;;;;;;;;;4957506;28;20043;-68
2022/04/02 01:54:01;;;;;;;6.45;2.63;;;;;;;;;;4982117;28;20413;-67
2022/04/02 01:56:27;;;;;;;6.88;2.88;;;;;;;;;;4975714;28;20047;-67
2022/04/02 01:58:53;;;;;;;7.38;3.22;;;;;;;;;;4980528;28;20494;-68
2022/04/02 02:01:19;;;;;;;8.20;2.88;;;;;;;;;;4981699;28;20049;-67
2022/04/02 02:03:45;;;;;;;7.30;2.55;;;;;;;;;;4991495;28;20053;-68
2022/04/02 02:06:11;;;;;;;9.27;2.90;;;;;;;;;;4978136;28;20386;-68
2022/04/02 02:08:38;;;;;;;9.20;3.00;;;;;;;;;;4995458;28;20042;-68
2022/04/02 02:11:04;;;;;;;6.93;2.72;;;;;;;;;;4987176;28;20046;-68
2022/04/02 02:13:30;;;;;;;8.40;2.72;;;;;;;;;;4987764;28;20039;-68
2022/04/02 02:15:56;;;;;;;7.93;2.45;;;;;;;;;;4988846;28;20058;-68
2022/04/02 02:18:22;;;;;;;7.78;2.90;;;;;;;;;;4962858;28;20504;-68
2022/04/02 02:20:48;;;;;;;5.88;2.45;;;;;;;;;;4983831;28;20050;-68
2022/04/02 02:23:14;;;;;;;7.10;2.90;;;;;;;;;;4993008;28;20042;-68
2022/04/02 02:25:40;;;;;;;6.88;2.80;;;;;;;;;;4973466;28;20082;-69
2022/04/02 02:28:06;;;;;;;8.27;3.10;;;;;;;;;;4986430;28;20054;-69
2022/04/02 02:30:32;;;;;;;7.38;3.10;;;;;;;;;;4969776;28;20077;-69
2022/04/02 02:35:49;;;;;;;6.47;3.00;;;;;;;;;;4995157;28;20042;-69
2022/04/02 02:38:15;;;;;;;6.05;2.90;;;;;;;;;;4994914;28;20778;-69
2022/04/02 02:40:41;;;;;;;8.98;3.15;;;;;;;;;;4983942;28;20141;-69
2022/04/02 02:43:08;;;;;;;9.02;2.83;;;;;;;;;;4980643;28;20473;-68
2022/04/02 02:45:34;;;;;;;5.57;2.78;;;;;;;;;;4994847;28;20524;-69
2022/04/02 02:48:01;;;;;;;6.38;2.70;;;;;;;;;;4992690;28;20050;-69
2022/04/02 02:50:28;;;;;;;7.82;2.63;;;;;;;;;;4979117;28;20050;-69
2022/04/02 02:52:54;;;;;;;7.72;2.95;;;;;;;;;;4964717;28;20081;-69
2022/04/02 02:55:20;;;;;;;6.65;2.45;;;;;;;;;;4972974;28;20045;-68
2022/04/02 02:57:46;;;;;;;11.95;3.25;;;;;;;;;;4993242;28;20042;-68
2022/04/02 03:00:13;;;;;;;5.85;2.35;;;;;;;;;;4959477;28;20125;-68
2022/04/02 03:02:39;;;;;;;7.85;3.10;;;;;;;;;;4979756;28;20124;-68
2022/04/02 03:05:12;;;;;;;8.18;2.95;;;;;;;;;;4992496;28;20050;-68
2022/04/02 03:07:39;;;;;;;8.40;2.97;;;;;;;;;;4986912;28;20113;-68
2022/04/02 03:10:06;;;;;;;9.48;3.03;;;;;;;;;;4991901;28;20129;-68
2022/04/02 03:12:33;;;;;;;8.55;3.15;;;;;;;;;;4959154;28;20047;-68
2022/04/02 03:15:01;;;;;;;10.80;2.97;;;;;;;;;;4991369;28;20042;-68
2022/04/02 03:17:28;;;;;;;8.38;2.75;;;;;;;;;;4993047;28;20115;-68
2022/04/02 03:19:54;;;;;;;11.05;3.00;;;;;;;;;;4967686;28;20046;-68
2022/04/02 03:22:21;;;;;;;11.23;3.33;;;;;;;;;;4989374;28;20066;-68
2022/04/02 03:24:47;;;;;;;7.28;3.30;;;;;;;;;;4969835;28;20063;-68
2022/04/02 03:27:13;;;;;;;6.63;3.00;;;;;;;;;;4987712;28;20053;-68
2022/04/02 03:29:39;;;;;;;8.25;3.00;;;;;;;;;;4994097;28;20043;-69
2022/04/02 03:32:06;;;;;;;6.97;2.65;;;;;;;;;;4960600;28;20395;-69
2022/04/02 03:34:31;;;;;;;8.45;3.40;;;;;;;;;;4975802;28;20051;-69
2022/04/02 03:36:57;;;;;;;9.52;3.45;;;;;;;;;;4994785;28;20042;-68
2022/04/02 03:39:23;;;;;;;8.43;3.38;;;;;;;;;;4983962;28;20049;-68
2022/04/02 03:41:53;;;;;;;9.77;3.47;;;;;;;;;;4986454;28;20047;-69
2022/04/02 03:44:19;;;;;;;9.45;3.63;;;;;;;;;;4979324;28;20034;-68
2022/04/02 03:49:30;;;;;;;9.60;3.35;;;;;;;;;;4964624;28;20054;-69
2022/04/02 03:51:56;;;;;;;8.30;3.50;;;;;;;;;;4991423;28;20121;-67
2022/04/02 03:54:22;;;;;;;7.80;3.42;;;;;;;;;;4971301;28;20042;-68
2022/04/02 03:56:48;;;;;;;10.07;3.42;;;;;;;;;;4988275;28;20132;-68
2022/04/02 03:59:14;;;;;;;8.98;3.42;;;;;;;;;;4992511;28;20401;-68
2022/04/02 04:01:40;;;;;;;6.63;3.22;;;;;;;;;;4992695;28;20038;-68
2022/04/02 04:04:06;;;;;;;10.52;3.15;;;;;;;;;;4988409;28;20047;-68
2022/04/02 04:06:32;;;;;;;7.22;3.15;;;;;;;;;;4980049;28;20042;-68
2022/04/02 04:08:58;;;;;;;11.05;3.45;;;;;;;;;;4958336;28;20049;-68
2022/04/02 04:11:26;;;;;;;10.35;3.70;;;;;;;;;;4965651;28;20050;-69
2022/04/02 04:13:52;;;;;;;8.65;3.25;;;;;;;;;;4990810;28;21302;-69
2022/04/02 04:16:19;;;;;;;11.70;3.33;;;;;;;;;;4982123;28;20477;-68
2022/04/02 04:18:45;;;;;;;7.47;3.00;;;;;;;;;;4983173;28;20089;-69
2022/04/02 04:21:14;;;;;;;7.88;3.55;;;;;;;;;;4981300;28;20049;-69
2022/04/02 04:23:40;;;;;;;9.35;3.28;;;;;;;;;;4984677;28;20050;-69
2022/04/02 04:26:06;;;;;;;8.60;3.42;;;;;;;;;;4982090;28;20076;-69
2022/04/02 04:28:32;;;;;;;6.82;3.17;;;;;;;;;;4983078;28;20048;-69
2022/04/02 04:30:58;;;;;;;7.72;3.33;;;;;;;;;;4987380;28;20030;-69
2022/04/02 04:33:24;;;;;;;7.93;3.40;;;;;;;;;;4974502;28;20405;-69
2022/04/02 04:35:50;;;;;;;13.50;3.97;;;;;;;;;;4989563;28;20049;-69
2022/04/02 04:38:16;;;;;;;10.32;3.20;;;;;;;;;;4984820;28;20043;-69
2022/04/02 04:40:42;;;;;;;8.07;3.13;;;;;;;;;;4975490;28;20042;-68
2022/04/02 04:43:08;;;;;;;10.90;3.40;;;;;;;;;;4982188;28;20131;-68
2022/04/02 04:45:34;;;;;;;6.50;3.03;;;;;;;;;;4988941;28;20433;-68
2022/04/02 04:48:00;;;;;;;7.60;3.28;;;;;;;;;;4984186;28;20573;-68
2022/04/02 04:50:27;;;;;;;9.25;3.33;;;;;;;;;;4986715;28;20126;-68
2022/04/02 04:52:53;;;;;;;7.57;3.30;;;;;;;;;;4985689;28;20077;-68
2022/04/02 04:55:19;;;;;;;9.13;3.45;;;;;;;;;;4983090;28;20130;-68
2022/04/02 04:57:45;;;;;;;9.95;3.65;;;;;;;;;;4982386;28;20042;-68
2022/04/02 05:00:12;;;;;;;11.20;3.75;;;;;;;;;;4977761;28;20065;-68
2022/04/02 05:02:39;;;;;;;9.27;3.80;;;;;;;;;;4992219;28;20046;-68
2022/04/02 05:05:05;;;;;;;7.97;3.47;;;;;;;;;;4992468;28;20050;-68
2022/04/02 05:07:31;;;;;;;9.07;3.53;;;;;;;;;;4985593;28;20485;-68
2022/04/02 05:09:57;;;;;;;12.15;4.13;;;;;;;;;;4979549;28;20045;-68
2022/04/02 05:12:23;;;;;;;6.22;3.28;;;;;;;;;;4982900;28;20502;-68
2022/04/02 05:14:49;;;;;;;10.38;3.80;;;;;;;;;;4984622;28;20437;-68
2022/04/02 05:17:17;;;;;;;10.05;3.28;;;;;;;;;;4981422;28;20501;-68
2022/04/02 05:19:43;;;;;;;9.15;3.50;;;;;;;;;;4975557;28;20047;-67
2022/04/02 05:22:10;;;;;;;8.52;3.38;;;;;;;;;;4987663;28;20413;-67
2022/04/02 05:24:37;;;;;;;8.35;4.05;;;;;;;;;;4987080;28;20093;-67
2022/04/02 05:27:03;;;;;;;7.75;3.80;;;;;;;;;;4981390;28;20046;-67
2022/04/02 05:29:30;;;;;;;9.13;3.95;;;;;;;;;;4959596;28;20042;-68
2022/04/02 05:31:55;;;;;;;10.60;4.35;;;;;;;;;;4968197;28;20043;-68
2022/04/02 05:34:21;;;;;;;8.25;3.72;;;;;;;;;;4979899;28;20045;-68
2022/04/02 05:36:47;;;;;;;8.02;4.13;;;;;;;;;;4989519;28;20101;-67
2022/04/02 05:39:13;;;;;;;11.55;4.10;;;;;;;;;;4976458;28;20046;-68
2022/04/02 05:41:39;;;;;;;9.10;3.78;;;;;;;;;;4996188;28;20410;-68
2022/04/02 05:44:07;;;;;;;7.40;3.83;;;;;;;;;;4988228;28;20057;-68
2022/04/02 05:46:33;;;;;;;11.05;4.50;;;;;;;;;;4989231;28;20051;-68
2022/04/02 05:48:59;;;;;;;11.07;4.05;;;;;;;;;;4982331;28;20047;-68
2022/04/02 05:51:25;;;;;;;9.02;3.92;;;;;;;;;;4979318;28;20121;-67
2022/04/02 05:53:51;;;;;;;11.15;3.75;;;;;;;;;;4980428;28;20493;-68
2022/04/02 05:56:22;;;;;;;8.15;3.70;;;;;;;;;;4970995;28;20394;-68
2022/04/02 05:58:48;;;;;;;10.43;3.92;;;;;;;;;;4976848;28;20062;-68
2022/04/02 06:01:15;;;;;;;10.73;4.03;;;;;;;;;;4970565;28;20125;-68
2022/04/02 06:03:42;;;;;;;10.38;4.13;;;;;;;;;;4992133;28;20053;-68
2022/04/02 06:06:08;;;;;;;10.00;3.72;;;;;;;;;;4978091;28;20051;-68
2022/04/02 06:08:34;;;;;;;10.00;4.43;;;;;;;;;;4977840;28;20105;-68
2022/04/02 06:11:01;;;;;;;8.00;3.30;;;;;;;;;;4993134;28;20053;-68
2022/04/02 06:13:27;;;;;;;10.45;4.07;;;;;;;;;;4965076;28;20414;-67
2022/04/02 06:15:53;;;;;;;9.93;3.92;;;;;;;;;;4961920;28;20038;-68
2022/04/02 06:18:19;;;;;;;8.77;3.47;;;;;;;;;;4989778;28;20406;-68
2022/04/02 06:20:47;;;;;;;10.23;3.90;;;;;;;;;;4985928;28;20069;-68
2022/04/02 06:23:13;;;;;;;12.10;4.28;;;;;;;;;;4974211;28;20556;-68
2022/04/02 06:25:40;;;;;;;8.70;4.00;;;;;;;;;;4988071;28;20100;-68
2022/04/02 06:28:06;;;;;;;13.23;4.07;;;;;;;;;;4952396;28;20497;-69
2022/04/02 06:30:32;;;;;;;6.85;3.05;;;;;;;;;;4991732;28;20056;-68
2022/04/02 06:33:00;;;;;;;8.20;3.58;;;;;;;;;;4989000;28;20093;-69
2022/04/02 06:35:26;;;;;;;10.18;3.55;;;;;;;;;;4993416;28;20560;-69
2022/04/02 06:37:54;;;;;;;8.55;3.88;;;;;;;;;;4971390;28;20054;-68
2022/04/02 06:40:20;;;;;;;8.32;3.60;;;;;;;;;;4961154;28;20502;-68
2022/04/02 06:42:46;;;;;;;9.48;3.53;;;;;;;;;;4981030;28;20078;-69
2022/04/02 06:45:12;;;;;;;7.93;3.40;;;;;;;;;;4961424;28;20051;-69
2022/04/02 06:47:38;;;;;;;7.40;3.55;;;;;;;;;;4989778;28;20097;-68
2022/04/02 06:50:06;;;;;;;9.90;3.58;;;;;;;;;;4980871;28;20182;-69
2022/04/02 06:52:32;;;;;;;8.85;3.55;;;;;;;;;;4967884;28;20057;-69
2022/04/02 06:54:58;;;;;;;8.68;3.45;;;;;;;;;;4977209;28;20034;-69
2022/04/02 06:57:24;;;;;;;9.18;3.72;;;;;;;;;;4976725;28;20050;-69
2022/04/02 06:59:50;;;;;;;9.98;3.28;;;;;;;;;;4976398;28;20062;-69
2022/04/02 07:02:16;;;;;;;7.63;3.05;;;;;;;;;;4976262;28;20038;-68
2022/04/02 07:04:42;;;;;;;7.88;3.10;;;;;;;;;;4977522;28;20098;-69
2022/04/02 07:07:09;;;;;;;7.10;3.03;;;;;;;;;;4995331;28;20056;-69
2022/04/02 07:09:36;;;;;;;7.68;3.58;;;;;;;;;;4995266;28;20047;-69
2022/04/02 07:12:02;;;;;;;6.95;3.03;;;;;;;;;;4995429;28;20047;-69
2022/04/02 07:14:28;;;;;;;7.38;3.28;;;;;;;;;;4978726;28;20047;-68
2022/04/02 07:16:55;;;;;;;9.60;3.22;;;;;;;;;;4992203;28;20042;-69
2022/04/02 07:19:22;;;;;;;7.72;3.67;;;;;;;;;;4977254;28;20051;-69
2022/04/02 07:21:50;;;;;;;12.68;3.58;;;;;;;;;;4977567;28;20133;-68
2022/04/02 07:24:17;;;;;;;9.48;3.35;;;;;;;;;;4995241;28;20050;-69
2022/04/02 07:26:45;;;;;;;7.25;3.45;;;;;;;;;;4994518;28;20046;-69
2022/04/02 07:29:12;;;;;;;9.00;3.80;;;;;;;;;;4976234;28;20047;-69
2022/04/02 07:31:38;;;;;;;9.45;3.03;;;;;;;;;;4963373;28;20054;-68
2022/04/02 07:34:04;;;;;;;7.15;2.90;;;;;;;;;;4991789;28;20042;-68
2022/04/02 07:36:38;;;;;;;6.85;3.22;;;;;;;;;;4986430;28;20043;-68
2022/04/02 07:39:05;;;;;;;9.82;3.40;;;;;;;;;;4975602;28;20039;-68
2022/04/02 07:41:58;;;;;;;10.95;3.40;;;;;;;;;;4975607;28;20091;-68
2022/04/02 07:44:32;;;;;;;5.95;3.00;;;;;;;;;;4993530;28;20057;-67
2022/04/02 07:46:59;;;;;;;7.85;2.83;;;;;;;;;;4978803;28;20168;-68
2022/04/02 07:49:27;;;;;;;7.65;2.92;;;;;;;;;;4975358;28;20398;-68
2022/04/02 07:51:54;;;;;;;7.50;2.97;;;;;;;;;;4981688;28;20054;-68
2022/04/02 07:54:24;;;;;;;7.18;3.20;;;;;;;;;;4980054;28;20406;-67
2022/04/02 07:56:51;;;;;;;8.98;3.40;;;;;;;;;;4976511;28;20050;-68
2022/04/02 07:59:29;;;;;;;6.57;3.13;;;;;;;;;;4975402;28;20078;-67
2022/04/02 08:01:56;;;;;;;7.78;3.05;;;;;;;;;;4989627;28;20046;-67
2022/04/02 08:04:25;;;;;;;7.72;3.67;;;;;;;;;;4978609;28;20494;-68
2022/04/02 08:06:52;;;;;;;8.95;3.50;;;;;;;;;;4992972;28;20046;-68
2022/04/02 08:09:20;;;;;;;7.32;3.08;;;;;;;;;;4994135;28;20050;-67
2022/04/02 08:11:48;;;;;;;7.75;3.15;;;;;;;;;;4986674;28;20074;-68
2022/04/02 08:14:15;;;;;;;8.15;3.28;;;;;;;;;;4957573;28;20498;-68
2022/04/02 08:16:43;;;;;;;10.45;3.45;;;;;;;;;;4975426;28;20066;-68
2022/04/02 08:19:10;;;;;;;5.18;2.20;;;;;;;;;;4988577;28;20051;-69
2022/04/02 08:21:36;;;;;;;7.03;3.03;;;;;;;;;;4986050;28;20046;-68
2022/04/02 08:24:03;;;;;;;5.47;2.50;;;;;;;;;;4976089;28;20074;-68
2022/04/02 08:26:47;;;;;;;8.23;2.60;;;;;;;;;;4987216;28;20085;-69
2022/04/02 08:29:22;;;;;;;8.25;3.38;;;;;;;;;;4989731;28;20046;-69
2022/04/02 08:31:57;;;;;;;5.57;2.28;;;;;;;;;;4979707;28;20750;-69
2022/04/02 08:34:52;;;;;;;6.05;2.42;;;;;;;;;;4957250;28;20047;-68
2022/04/02 08:37:25;;;;;;;5.97;2.30;;;;;;;;;;4969819;28;20122;-68
2022/04/02 08:40:11;;;;;;;7.43;3.00;;;;;;;;;;4974446;28;20098;-68
2022/04/02 08:42:56;;;;;;;5.80;2.50;;;;;;;;;;4992637;28;20063;-68
2022/04/02 08:45:32;;;;;;;7.45;2.92;;;;;;;;;;4992877;28;20146;-69
2022/04/02 08:48:13;;;;;;;7.70;3.03;;;;;;;;;;4993300;28;20050;-69
2022/04/02 08:50:45;;;;;;;6.20;2.50;;;;;;;;;;4981748;28;20401;-68
2022/04/02 08:53:18;;;;;;;6.45;2.42;;;;;;;;;;4974001;28;20043;-69
2022/04/02 08:55:49;;;;;;;7.72;2.78;;;;;;;;;;4982302;28;20192;-68
2022/04/02 08:58:22;;;;;;;6.00;2.17;;;;;;;;;;4991887;28;20113;-68
2022/04/02 09:01:06;;;;;;;6.75;2.13;;;;;;;;;;4984093;28;20038;-68
2022/04/02 09:04:03;;;;;;;8.23;2.30;;;;;;;;;;4973968;28;20051;-69
2022/04/02 09:06:29;;;;;;;6.32;2.42;;;;;;;;;;4975697;28;20059;-69
2022/04/02 09:08:55;;;;;;;4.53;2.03;;;;;;;;;;4980582;28;20054;-69
2022/04/02 09:11:31;;;;;;;5.18;1.90;;;;;;;;;;4987615;28;20042;-69
2022/04/02 09:14:14;;;;;;;4.13;1.63;;;;;;;;;;4993282;28;20105;-68
2022/04/02 09:16:52;;;;;;;6.70;2.00;;;;;;;;;;4975595;28;20058;-68
2022/04/02 09:19:41;;;;;;;6.78;1.90;;;;;;;;;;4973998;28;20065;-69
2022/04/02 09:22:30;;;;;;;5.75;1.77;;;;;;;;;;4979140;28;20050;-67
2022/04/02 09:24:59;;;;;;;11.32;2.17;;;;;;;;;;4979808;28;20160;-67
2022/04/02 09:27:28;;;;;;;5.53;2.15;;;;;;;;;;4974540;28;20105;-68
2022/04/02 09:29:58;;;;;;;5.38;1.77;;;;;;;;;;4973581;28;20573;-69
2022/04/02 09:32:42;;;;;;;8.40;2.13;;;;;;;;;;4973565;28;20055;-68
2022/04/02 09:35:17;;;;;;;6.35;1.65;;;;;;;;;;4973447;28;20058;-68
2022/04/02 09:38:10;;;;;;;6.03;1.80;;;;;;;;;;4973877;28;20181;-68
2022/04/02 09:40:39;;;;;;;4.97;1.80;;;;;;;;;;4973569;28;20049;-68
2022/04/02 09:43:12;;;;;;;7.80;2.03;;;;;;;;;;4973533;28;20117;-68
2022/04/02 09:46:05;;;;;;;7.72;2.70;;;;;;;;;;4958824;28;20177;-68
2022/04/02 09:48:38;;;;;;;5.97;1.60;;;;;;;;;;4986086;28;20065;-69
2022/04/02 09:51:05;;;;;;;5.30;1.85;;;;;;;;;;4990738;28;20504;-68
2022/04/02 09:53:35;;;;;;;5.18;1.42;;;;;;;;;;4992852;28;20069;-68
2022/04/02 09:56:01;;;;;;;4.22;1.05;;;;;;;;;;4975704;28;20067;-68
2022/04/02 09:58:46;;;;;;;3.90;1.50;;;;;;;;;;4993065;28;20146;-68
2022/04/02 10:01:18;;;;;;;4.07;1.52;;;;;;;;;;4992910;28;20050;-70
2022/04/02 10:03:53;;;;;;;2.95;1.20;;;;;;;;;;4991927;28;20058;-68
2022/04/02 10:06:23;;;;;;;3.05;1.45;;;;;;;;;;4985834;28;20061;-69
2022/04/02 10:09:09;;;;;;;6.88;1.70;;;;;;;;;;4975231;28;20054;-68
2022/04/02 10:11:39;;;;;;;4.90;1.30;;;;;;;;;;4984854;28;20051;-68
2022/04/02 10:14:07;;;;;;;4.78;1.40;;;;;;;;;;4976526;28;20050;-68
2022/04/02 10:16:33;;;;;;;4.00;1.50;;;;;;;;;;4979441;28;20042;-69
2022/04/02 10:19:00;;;;;;;3.65;1.30;;;;;;;;;;4982276;28;20053;-69
2022/04/02 10:21:30;;;;;;;4.63;1.38;;;;;;;;;;4977907;28;20047;-69
2022/04/02 10:24:14;;;;;;;4.65;1.58;;;;;;;;;;4983098;28;20046;-69
2022/04/02 10:26:41;;;;;;;4.70;1.20;;;;;;;;;;4990603;28;20069;-68
2022/04/02 10:29:11;;;;;;;3.60;1.30;;;;;;;;;;4979704;28;20050;-68
2022/04/02 10:31:40;;;;;;;3.75;1.42;;;;;;;;;;4980417;28;20057;-68
2022/04/02 10:34:06;;;;;;;6.68;1.80;;;;;;;;;;4995009;28;20073;-68
2022/04/02 10:36:37;;;;;;;4.25;1.50;;;;;;;;;;4978286;28;20939;-68
2022/04/02 10:39:04;;;;;;;6.63;2.10;;;;;;;;;;4984100;28;20181;-67
2022/04/02 10:41:30;;;;;;;8.00;2.03;;;;;;;;;;4995300;28;20061;-68
2022/04/02 10:44:00;;;;;;;3.53;1.50;;;;;;;;;;4986854;28;20503;-68
2022/04/02 10:46:26;;;;;;;7.10;1.88;;;;;;;;;;4995523;28;20470;-69
2022/04/02 10:48:55;;;;;;;4.63;1.63;;;;;;;;;;4984731;28;20095;-68
2022/04/02 10:51:25;;;;;;;4.30;1.35;;;;;;;;;;4976378;28;20051;-69
2022/04/02 10:54:13;;;;;;;3.45;1.17;;;;;;;;;;4984892;28;20474;-69
2022/04/02 10:56:46;;;;;;;4.90;1.20;;;;;;;;;;4995573;28;20517;-69
2022/04/02 10:59:13;;;;;;;3.45;1.05;;;;;;;;;;4994806;28;20561;-67
2022/04/02 11:01:40;;;;;;;5.93;1.30;;;;;;;;;;4994553;28;20520;-67
2022/04/02 11:04:18;;;;;;;3.88;1.15;;;;;;;;;;4977815;28;20062;-68
2022/04/02 11:06:48;;;;;;;6.63;2.20;;;;;;;;;;4976041;28;20042;-68
2022/04/02 11:09:25;;;;;;;7.43;2.10;;;;;;;;;;4987366;28;20050;-68
2022/04/02 11:11:52;;;;;;;4.50;1.48;;;;;;;;;;4981173;28;20054;-67
2022/04/02 11:14:21;;;;;;;5.50;2.08;;;;;;;;;;4983553;28;20046;-68
2022/04/02 11:16:47;;;;;;;4.45;1.63;;;;;;;;;;4994552;28;20406;-67
2022/04/02 11:22:17;;;;;;;5.57;2.13;;;;;;;;;;4916178;29;20077;-69
2022/04/02 11:25:03;;;;;;;5.40;1.92;;;;;;;;;;4919541;29;20067;-68
2022/04/02 11:27:30;;;;;;;4.55;1.75;;;;;;;;;;4920932;29;20498;-68
2022/04/02 11:30:01;;;;;;;5.43;1.95;;;;;;;;;;4934410;29;20059;-68
2022/04/02 11:32:29;;;;;;;3.95;1.60;;;;;;;;;;4933417;29;20040;-69
2022/04/02 11:34:56;;;;;;;4.88;1.73;;;;;;;;;;4934560;29;20051;-69
2022/04/02 11:37:26;;;;;;;6.40;1.90;;;;;;;;;;4934854;29;20055;-69
2022/04/02 11:39:54;;;;;;;5.15;1.80;;;;;;;;;;4918249;29;20077;-68
2022/04/02 11:42:25;;;;;;;3.83;1.45;;;;;;;;;;4915343;29;20079;-68
2022/04/02 11:44:52;;;;;;;4.72;1.83;;;;;;;;;;4916416;29;20494;-70
2022/04/02 11:47:25;;;;;;;5.10;1.60;;;;;;;;;;4915610;29;20131;-68
2022/04/02 11:49:53;;;;;;;5.28;1.60;;;;;;;;;;4914412;29;20411;-69
2022/04/02 11:52:19;;;;;;;3.67;1.38;;;;;;;;;;4918751;29;20044;-68
2022/04/02 11:54:45;;;;;;;5.30;1.77;;;;;;;;;;4919332;29;20048;-68
2022/04/02 11:57:12;;;;;;;4.53;1.70;;;;;;;;;;4971065;28;20042;-68
2022/04/02 11:59:50;;;;;;;4.07;1.13;;;;;;;;;;4982557;28;20089;-68
2022/04/02 12:02:34;;;;;;;5.20;1.40;;;;;;;;;;4994313;28;20505;-67
2022/04/02 12:05:00;;;;;;;3.50;1.30;;;;;;;;;;4993590;28;20046;-68
2022/04/02 12:07:38;;;;;;;8.38;1.77;;;;;;;;;;4993998;28;20047;-68
2022/04/02 12:10:05;;;;;;;7.45;1.95;;;;;;;;;;4992626;28;20038;-69
2022/04/02 12:12:31;;;;;;;5.25;1.67;;;;;;;;;;4991354;28;20062;-69
2022/04/02 12:15:08;;;;;;;7.43;2.20;;;;;;;;;;4994142;28;20498;-68
2022/04/02 12:17:35;;;;;;;5.72;1.65;;;;;;;;;;4992783;28;20093;-68
2022/04/02 12:20:02;;;;;;;7.00;1.80;;;;;;;;;;4993409;28;20054;-69
2022/04/02 12:22:33;;;;;;;4.80;1.67;;;;;;;;;;4993146;28;20053;-68
2022/04/02 12:24:59;;;;;;;4.55;1.23;;;;;;;;;;4991751;28;20116;-68
2022/04/02 12:27:26;;;;;;;6.05;1.73;;;;;;;;;;4991545;28;20046;-69
2022/04/02 12:29:54;;;;;;;5.97;1.55;;;;;;;;;;4993467;28;20053;-69
2022/04/02 12:32:28;;;;;;;5.53;1.70;;;;;;;;;;4991312;28;20105;-68
2022/04/02 12:34:59;;;;;;;9.02;1.27;;;;;;;;;;4981407;28;20121;-68
2022/04/02 12:37:28;;;;;;;5.45;1.33;;;;;;;;;;4985101;28;20505;-68
2022/04/02 12:39:54;;;;;;;4.38;1.80;;;;;;;;;;4985132;28;20062;-69
2022/04/02 12:42:37;;;;;;;6.15;1.80;;;;;;;;;;4993151;28;20046;-68
2022/04/02 12:45:10;;;;;;;6.13;1.70;;;;;;;;;;4990351;28;20513;-69
2022/04/02 12:47:36;;;;;;;7.35;1.67;;;;;;;;;;4991282;28;20050;-69
2022/04/02 12:50:12;;;;;;;5.10;2.05;;;;;;;;;;4985725;28;20046;-69
2022/04/02 12:52:49;;;;;;;5.45;1.80;;;;;;;;;;4993275;28;20122;-67
2022/04/02 12:55:19;;;;;;;5.55;1.75;;;;;;;;;;4966577;28;20039;-69
2022/04/02 12:57:56;;;;;;;5.72;1.40;;;;;;;;;;4989676;28;20050;-69
2022/04/02 13:00:29;;;;;;;4.45;1.42;;;;;;;;;;4989744;28;20039;-69
2022/04/02 13:02:57;;;;;;;4.75;1.55;;;;;;;;;;4977269;28;20122;-69
2022/04/02 13:05:25;;;;;;;10.00;2.00;;;;;;;;;;4974038;28;20054;-68
2022/04/02 13:08:01;;;;;;;5.05;1.65;;;;;;;;;;4988938;28;20043;-69
2022/04/02 13:10:29;;;;;;;2.50;0.95;;;;;;;;;;4978539;28;20502;-68
2022/04/02 13:12:59;;;;;;;6.07;1.25;;;;;;;;;;4985980;28;20042;-70
2022/04/02 13:15:26;;;;;;;4.05;1.20;;;;;;;;;;4992411;28;20486;-69
2022/04/02 13:20:37;;;;;;;4.32;1.38;;;;;;;;;;4990264;28;20054;-69
2022/04/02 13:23:05;;;;;;;4.80;1.40;;;;;;;;;;4993025;28;20160;-67
2022/04/02 13:25:33;;;;;;;4.43;1.45;;;;;;;;;;4992651;28;20077;-68
2022/04/02 13:28:11;;;;;;;5.43;1.55;;;;;;;;;;4975844;28;20050;-68
2022/04/02 13:30:49;;;;;;;3.80;1.23;;;;;;;;;;4991351;28;20047;-69
2022/04/02 13:33:35;;;;;;;4.13;1.10;;;;;;;;;;4990278;28;20046;-68
2022/04/02 13:36:01;;;;;;;3.25;1.25;;;;;;;;;;4993251;28;20059;-69
2022/04/02 13:38:45;;;;;;;2.50;0.90;;;;;;;;;;4983725;28;20098;-69
2022/04/02 13:41:12;;;;;;;5.20;1.45;;;;;;;;;;4973205;28;20498;-68
2022/04/02 13:43:42;;;;;;;6.43;1.33;;;;;;;;;;4982865;28;20128;-68
2022/04/02 13:46:10;;;;;;;2.80;1.27;;;;;;;;;;4981659;28;20061;-68
2022/04/02 13:48:51;;;;;;;6.20;1.30;;;;;;;;;;4981675;28;20047;-67
2022/04/02 13:51:19;;;;;;;3.35;1.10;;;;;;;;;;4991382;28;20116;-68
2022/04/02 13:53:47;;;;;;;4.38;1.25;;;;;;;;;;4992120;28;20034;-68
2022/04/02 13:56:13;;;;;;;5.03;1.42;;;;;;;;;;4992478;28;20116;-69
2022/04/02 13:58:44;;;;;;;4.53;1.30;;;;;;;;;;4991576;28;20042;-69
2022/04/02 14:01:20;;;;;;;2.20;0.90;;;;;;;;;;4977541;28;20043;-69
2022/04/02 14:03:48;;;;;;;3.72;1.20;;;;;;;;;;4980303;28;20049;-69
2022/04/02 14:06:15;;;;;;;4.63;1.10;;;;;;;;;;4947093;28;20051;-68
2022/04/02 14:08:46;;;;;;;4.88;1.50;;;;;;;;;;4987285;28;20097;-69
2022/04/02 14:11:19;;;;;;;3.30;1.20;;;;;;;;;;4996361;28;20478;-69
2022/04/02 14:14:11;;;;;;;2.83;1.10;;;;;;;;;;4995042;28;20050;-69
2022/04/02 14:16:38;;;;;;;3.63;1.25;;;;;;;;;;4974952;28;20090;-69
2022/04/02 14:19:12;;;;;;;3.67;1.20;;;;;;;;;;4995805;28;20117;-69
2022/04/02 14:21:39;;;;;;;5.43;1.60;;;;;;;;;;4990299;28;20487;-69
2022/04/02 14:24:08;;;;;;;4.55;1.60;;;;;;;;;;4991979;28;20077;-69
2022/04/02 14:26:53;;;;;;;3.83;1.50;;;;;;;;;;4994934;28;20060;-69
2022/04/02 14:29:37;;;;;;;3.92;0.93;;;;;;;;;;4995508;28;20137;-68
2022/04/02 14:32:09;;;;;;;5.15;1.52;;;;;;;;;;4984910;28;20046;-69
2022/04/02 14:34:54;;;;;;;4.18;1.33;;;;;;;;;;4982014;28;20125;-68
2022/04/02 14:37:40;;;;;;;3.80;1.30;;;;;;;;;;4989046;28;20042;-68
2022/04/02 14:40:14;;;;;;;6.63;1.45;;;;;;;;;;4988152;28;20100;-69
2022/04/02 14:42:45;;;;;;;3.40;1.23;;;;;;;;;;4994198;28;20065;-69
2022/04/02 14:45:30;;;;;;;5.13;1.40;;;;;;;;;;4995452;28;20532;-69
2022/04/02 14:47:56;;;;;;;4.78;1.30;;;;;;;;;;4995749;28;20402;-69
2022/04/02 14:50:37;;;;;;;5.82;1.58;;;;;;;;;;4982912;28;20047;-66
2022/04/02 14:53:12;;;;;;;4.28;1.55;;;;;;;;;;4982995;28;20051;-67
2022/04/02 14:55:44;;;;;;;3.35;1.17;;;;;;;;;;4981773;28;20098;-68
2022/04/02 14:58:34;;;;;;;4.97;1.45;;;;;;;;;;4976324;28;20050;-68
2022/04/02 15:01:18;;;;;;;3.25;1.10;;;;;;;;;;4976237;28;20086;-68
2022/04/02 15:03:55;;;;;;;4.78;1.42;;;;;;;;;;4976381;28;20047;-68
2022/04/02 15:06:44;;;;;;;4.43;1.20;;;;;;;;;;4977413;28;20053;-69